Time;durP1;ratioP1;P1;durP2;ratioP2;P2;SDS_P1;SDS_P2;PMS_P1;PMS_P2;Temp;Humidity;BMP_temperature;BMP_pressure;BME280_temperature;BME280_humidity;BME280_pressure;Samples;Min_cycle;Max_cycle;Signal;HPM_P1;HPM_P2
2021/10/12 00:01:21;;;;;;;;;;;;;;;;;;5061237;28;20406;-62
2021/10/12 00:03:48;;;;;;;;;;;;;;;;;;5062474;28;19931;-62
2021/10/12 00:06:15;;;;;;;;;;;;;;;;;;5060121;28;19939;-62
2021/10/12 00:08:42;;;;;;;;;;;;;;;;;;5057128;28;19929;-62
2021/10/12 00:11:09;;;;;;;;;;;;;;;;;;5062996;28;19931;-62
2021/10/12 00:13:36;;;;;;;;;;;;;;;;;;5062306;28;19974;-62
2021/10/12 00:16:03;;;;;;;;;;;;;;;;;;5063135;28;19925;-62
2021/10/12 00:18:30;;;;;;;;;;;;;;;;;;5061542;28;19960;-62
2021/10/12 00:20:57;;;;;;;;;;;;;;;;;;5062258;28;20015;-62
2021/10/12 00:23:24;;;;;;;;;;;;;;;;;;5060596;28;19932;-62
2021/10/12 00:25:51;;;;;;;;;;;;;;;;;;5061658;28;19988;-62
2021/10/12 00:28:18;;;;;;;;;;;;;;;;;;5059098;28;20352;-62
2021/10/12 00:30:45;;;;;;;;;;;;;;;;;;5061645;28;19929;-62
2021/10/12 00:33:11;;;;;;;;;;;;;;;;;;5059789;28;19959;-62
2021/10/12 00:35:38;;;;;;;;;;;;;;;;;;5061802;28;19991;-62
2021/10/12 00:38:05;;;;;;;;;;;;;;;;;;5058681;28;19976;-62
2021/10/12 00:40:32;;;;;;;;;;;;;;;;;;5062014;28;19925;-62
2021/10/12 00:42:59;;;;;;;;;;;;;;;;;;5058812;28;20091;-62
2021/10/12 00:45:26;;;;;;;;;;;;;;;;;;5067764;28;19929;-62
2021/10/12 00:47:53;;;;;;;;;;;;;;;;;;5063827;28;19991;-62
2021/10/12 00:50:20;;;;;;;;;;;;;;;;;;5064108;28;19925;-62
2021/10/12 00:52:47;;;;;;;;;;;;;;;;;;5061107;28;19935;-62
2021/10/12 00:55:14;;;;;;;;;;;;;;;;;;5062033;28;20380;-62
2021/10/12 00:57:41;;;;;;;;;;;;;;;;;;5060947;28;19925;-62
2021/10/12 01:00:10;;;;;;;;;;;;;;;;;;5063512;28;19931;-62
2021/10/12 01:02:37;;;;;;;;;;;;;;;;;;5062161;28;19963;-62
2021/10/12 01:05:04;;;;;;;;;;;;;;;;;;5058158;28;19925;-62
2021/10/12 01:07:31;;;;;;;;;;;;;;;;;;5061146;28;19925;-62
2021/10/12 01:09:58;;;;;;;;;;;;;;;;;;5064781;28;19925;-62
2021/10/12 01:12:24;;;;;;;;;;;;;;;;;;5060159;28;19964;-62
2021/10/12 01:14:51;;;;;;;;;;;;;;;;;;5064072;28;19925;-62
2021/10/12 01:17:18;;;;;;;;;;;;;;;;;;5065255;28;19968;-62
2021/10/12 01:19:45;;;;;;;;;;;;;;;;;;5065942;28;20381;-62
2021/10/12 01:22:12;;;;;;;;;;;;;;;;;;5057132;28;19964;-62
2021/10/12 01:24:39;;;;;;;;;;;;;;;;;;5061489;28;20031;-62
2021/10/12 01:27:06;;;;;;;;;;;;;;;;;;5064666;28;19935;-62
2021/10/12 01:29:33;;;;;;;;;;;;;;;;;;5066033;28;19924;-62
2021/10/12 01:32:00;;;;;;;;;;;;;;;;;;5061634;28;19925;-61
2021/10/12 01:34:27;;;;;;;;;;;;;;;;;;5063434;28;19924;-62
2021/10/12 01:36:54;;;;;;;;;;;;;;;;;;5061894;28;20296;-62
2021/10/12 01:39:21;;;;;;;;;;;;;;;;;;5061317;28;20011;-61
2021/10/12 01:41:48;;;;;;;;;;;;;;;;;;5058387;28;19925;-61
2021/10/12 01:44:15;;;;;;;;;;;;;;;;;;5064831;28;19988;-62
2021/10/12 01:46:42;;;;;;;;;;;;;;;;;;5058199;28;19988;-61
2021/10/12 01:49:09;;;;;;;;;;;;;;;;;;5067276;28;19924;-61
2021/10/12 01:51:35;;;;;;;;;;;;;;;;;;5064328;28;19928;-61
2021/10/12 01:54:02;;;;;;;;;;;;;;;;;;5067234;28;19992;-61
2021/10/12 01:56:29;;;;;;;;;;;;;;;;;;5061618;28;20016;-62
2021/10/12 01:58:56;;;;;;;;;;;;;;;;;;5068761;28;19931;-62
2021/10/12 02:01:23;;;;;;;;;;;;;;;;;;5068067;28;19932;-61
2021/10/12 02:03:50;;;;;;;;;;;;;;;;;;5063211;28;19960;-61
2021/10/12 02:06:17;;;;;;;;;;;;;;;;;;5063911;28;20020;-62
2021/10/12 02:08:44;;;;;;;;;;;;;;;;;;5065635;28;19983;-62
2021/10/12 02:11:11;;;;;;;;;;;;;;;;;;5062873;28;20011;-62
2021/10/12 02:13:38;;;;;;;;;;;;;;;;;;5066012;28;19925;-62
2021/10/12 02:16:05;;;;;;;;;;;;;;;;;;5065112;28;19975;-61
2021/10/12 02:18:32;;;;;;;;;;;;;;;;;;5062551;28;19955;-62
2021/10/12 02:20:59;;;;;;;;;;;;;;;;;;5067211;28;19987;-61
2021/10/12 02:23:27;;;;;;;;;;;;;;;;;;5058831;28;19929;-61
2021/10/12 02:25:54;;;;;;;;;;;;;;;;;;5064818;28;19925;-61
2021/10/12 02:28:20;;;;;;;;;;;;;;;;;;5058863;28;19925;-62
2021/10/12 02:30:47;;;;;;;;;;;;;;;;;;5067793;28;19975;-61
2021/10/12 02:33:14;;;;;;;;;;;;;;;;;;5064100;28;20020;-61
2021/10/12 02:35:41;;;;;;;;;;;;;;;;;;5063992;28;20049;-62
2021/10/12 02:38:08;;;;;;;;;;;;;;;;;;5064008;28;19932;-61
2021/10/12 02:40:35;;;;;;;;;;;;;;;;;;5060828;28;19988;-62
2021/10/12 02:43:02;;;;;;;;;;;;;;;;;;5063997;28;19925;-61
2021/10/12 02:45:29;;;;;;;;;;;;;;;;;;5061880;28;20012;-62
2021/10/12 02:47:56;;;;;;;;;;;;;;;;;;5064131;28;20019;-62
2021/10/12 02:50:23;;;;;;;;;;;;;;;;;;5058192;28;19928;-62
2021/10/12 02:52:50;;;;;;;;;;;;;;;;;;5066120;28;19996;-62
2021/10/12 02:55:17;;;;;;;;;;;;;;;;;;5062960;28;19925;-61
2021/10/12 02:57:44;;;;;;;;;;;;;;;;;;5064603;28;19996;-62
2021/10/12 03:00:11;;;;;;;;;;;;;;;;;;5069366;28;19964;-62
2021/10/12 03:02:38;;;;;;;;;;;;;;;;;;5068423;28;19935;-61
2021/10/12 03:05:05;;;;;;;;;;;;;;;;;;5066297;28;19925;-60
2021/10/12 03:07:32;;;;;;;;;;;;;;;;;;5064808;28;19931;-61
2021/10/12 03:09:59;;;;;;;;;;;;;;;;;;5058546;28;19948;-61
2021/10/12 03:12:26;;;;;;;;;;;;;;;;;;5063337;28;19931;-60
2021/10/12 03:14:53;;;;;;;;;;;;;;;;;;5065991;28;19931;-61
2021/10/12 03:17:20;;;;;;;;;;;;;;;;;;5068321;28;19971;-61
2021/10/12 03:19:47;;;;;;;;;;;;;;;;;;5068707;28;19929;-61
2021/10/12 03:22:15;;;;;;;;;;;;;;;;;;5067376;28;19980;-62
2021/10/12 03:24:42;;;;;;;;;;;;;;;;;;5067914;28;19939;-62
2021/10/12 03:27:09;;;;;;;;;;;;;;;;;;5061367;28;19935;-62
2021/10/12 03:29:36;;;;;;;;;;;;;;;;;;5069009;28;19925;-62
2021/10/12 03:32:03;;;;;;;;;;;;;;;;;;5067365;28;19935;-62
2021/10/12 03:34:30;;;;;;;;;;;;;;;;;;5067688;28;19977;-62
2021/10/12 03:36:57;;;;;;;;;;;;;;;;;;5064172;28;19963;-61
2021/10/12 03:39:24;;;;;;;;;;;;;;;;;;5065934;28;19996;-59
2021/10/12 03:41:51;;;;;;;;;;;;;;;;;;5063215;28;20329;-62
2021/10/12 03:44:18;;;;;;;;;;;;;;;;;;5066958;22;19935;-69
2021/10/12 03:46:45;;;;;;;;;;;;;;;;;;5047853;28;20312;-69
2021/10/12 03:49:11;;;;;;;;;;;;;;;;;;5046855;28;19940;-69
2021/10/12 03:51:40;;;;;;;;;;;;;;;;;;5043534;28;19925;-69
2021/10/12 03:54:07;;;;;;;;;;;;;;;;;;5031165;28;19936;-69
2021/10/12 03:56:34;;;;;;;;;;;;;;;;;;5022847;28;19951;-69
2021/10/12 03:59:01;;;;;;;;;;;;;;;;;;5028980;28;20546;-68
2021/10/12 04:01:28;;;;;;;;;;;;;;;;;;5024991;28;19929;-69
2021/10/12 04:03:55;;;;;;;;;;;;;;;;;;5028480;28;20011;-68
2021/10/12 04:06:21;;;;;;;;;;;;;;;;;;5029241;28;19931;-69
2021/10/12 04:08:48;;;;;;;;;;;;;;;;;;5030299;28;20011;-68
2021/10/12 04:11:15;;;;;;;;;;;;;;;;;;5025228;28;20289;-68
2021/10/12 04:13:42;;;;;;;;;;;;;;;;;;5027600;28;19926;-68
2021/10/12 04:16:09;;;;;;;;;;;;;;;;;;5031074;28;19936;-67
2021/10/12 04:18:36;;;;;;;;;;;;;;;;;;5025206;28;20301;-69
2021/10/12 04:21:03;;;;;;;;;;;;;;;;;;5023861;28;19925;-68
2021/10/12 04:23:30;;;;;;;;;;;;;;;;;;5025337;28;19971;-68
2021/10/12 04:25:58;;;;;;;;;;;;;;;;;;5027293;28;20023;-68
2021/10/12 04:28:25;;;;;;;;;;;;;;;;;;5025045;28;20393;-70
2021/10/12 04:30:52;;;;;;;;;;;;;;;;;;5024506;28;19925;-69
2021/10/12 04:33:19;;;;;;;;;;;;;;;;;;5025252;28;20015;-68
2021/10/12 04:35:46;;;;;;;;;;;;;;;;;;5025258;28;19931;-68
2021/10/12 04:38:13;;;;;;;;;;;;;;;;;;5027472;28;19925;-70
2021/10/12 04:40:40;;;;;;;;;;;;;;;;;;5029127;28;20023;-68
2021/10/12 04:43:07;;;;;;;;;;;;;;;;;;5027634;28;19955;-70
2021/10/12 04:45:34;;;;;;;;;;;;;;;;;;5026286;28;20308;-67
2021/10/12 04:48:02;;;;;;;;;;;;;;;;;;5029289;28;20015;-69
2021/10/12 04:50:29;;;;;;;;;;;;;;;;;;5024793;28;19925;-70
2021/10/12 04:52:56;;;;;;;;;;;;;;;;;;5028209;28;20016;-70
2021/10/12 04:55:23;;;;;;;;;;;;;;;;;;5028006;28;19925;-67
2021/10/12 04:57:49;;;;;;;;;;;;;;;;;;5027762;28;19925;-67
2021/10/12 05:00:16;;;;;;;;;;;;;;;;;;5025055;28;19928;-67
2021/10/12 05:02:43;;;;;;;;;;;;;;;;;;5021144;28;20016;-69
2021/10/12 05:05:10;;;;;;;;;;;;;;;;;;5030759;28;20272;-68
2021/10/12 05:07:37;;;;;;;;;;;;;;;;;;5028091;28;20213;-70
2021/10/12 05:10:04;;;;;;;;;;;;;;;;;;5025475;28;20393;-69
2021/10/12 05:12:31;;;;;;;;;;;;;;;;;;5026784;28;19925;-70
2021/10/12 05:14:58;;;;;;;;;;;;;;;;;;5030653;28;19926;-70
2021/10/12 05:17:27;;;;;;;;;;;;;;;;;;5028216;28;19935;-68
2021/10/12 05:19:54;;;;;;;;;;;;;;;;;;5030006;28;20381;-70
2021/10/12 05:22:21;;;;;;;;;;;;;;;;;;5027842;28;19931;-71
2021/10/12 05:24:48;;;;;;;;;;;;;;;;;;5028935;28;19926;-69
2021/10/12 05:27:15;;;;;;;;;;;;;;;;;;5028725;28;19940;-70
2021/10/12 05:29:42;;;;;;;;;;;;;;;;;;5028621;28;20083;-70
2021/10/12 05:32:09;;;;;;;;;;;;;;;;;;5027898;28;21167;-70
2021/10/12 05:34:35;;;;;;;;;;;;;;;;;;5031080;28;19925;-69
2021/10/12 05:37:02;;;;;;;;;;;;;;;;;;5035892;28;20324;-69
2021/10/12 05:39:29;;;;;;;;;;;;;;;;;;5031322;28;20341;-69
2021/10/12 05:41:56;;;;;;;;;;;;;;;;;;5029697;28;19932;-71
2021/10/12 05:44:23;;;;;;;;;;;;;;;;;;5026593;28;19926;-70
2021/10/12 05:46:50;;;;;;;;;;;;;;;;;;5029241;28;20304;-71
2021/10/12 05:49:17;;;;;;;;;;;;;;;;;;5022317;28;19929;-68
2021/10/12 05:51:46;;;;;;;;;;;;;;;;;;5027463;28;19949;-68
2021/10/12 05:54:15;;;;;;;;;;;;;;;;;;5029140;28;19932;-69
2021/10/12 05:56:45;;;;;;;;;;;;;;;;;;5029771;28;19941;-70
2021/10/12 05:59:12;;;;;;;;;;;;;;;;;;5027735;28;19932;-72
2021/10/12 06:01:41;;;;;;;;;;;;;;;;;;5022026;28;19940;-69
2021/10/12 06:04:08;;;;;;;;;;;;;;;;;;5026419;28;19931;-69
2021/10/12 06:06:35;;;;;;;;;;;;;;;;;;5026283;28;20046;-69
2021/10/12 06:09:02;;;;;;;;;;;;;;;;;;5025483;28;20404;-68
2021/10/12 06:11:31;;;;;;;;;;;;;;;;;;5022025;28;19935;-68
2021/10/12 06:13:58;;;;;;;;;;;;;;;;;;5021587;28;19932;-68
2021/10/12 06:16:25;;;;;;;;;;;;;;;;;;5029917;28;19932;-68
2021/10/12 06:18:51;;;;;;;;;;;;;;;;;;5026284;28;19925;-68
2021/10/12 06:21:18;;;;;;;;;;;;;;;;;;5023458;28;20238;-68
2021/10/12 06:23:45;;;;;;;;;;;;;;;;;;5017755;28;20439;-69
2021/10/12 06:26:12;;;;;;;;;;;;;;;;;;5024402;28;19931;-68
2021/10/12 06:28:39;;;;;;;;;;;;;;;;;;5029036;28;19960;-69
2021/10/12 06:31:07;;;;;;;;;;;;;;;;;;5022084;28;19925;-70
2021/10/12 06:33:34;;;;;;;;;;;;;;;;;;5023946;28;19925;-68
2021/10/12 06:36:01;;;;;;;;;;;;;;;;;;5025171;28;19925;-71
2021/10/12 06:38:28;;;;;;;;;;;;;;;;;;5020563;28;20395;-69
2021/10/12 06:40:55;;;;;;;;;;;;;;;;;;5020756;28;19929;-69
2021/10/12 06:43:22;;;;;;;;;;;;;;;;;;5025682;28;19929;-69
2021/10/12 06:45:49;;;;;;;;;;;;;;;;;;5028709;28;19933;-68
2021/10/12 06:48:16;;;;;;;;;;;;;;;;;;5028571;28;19926;-69
2021/10/12 06:50:43;;;;;;;;;;;;;;;;;;5030648;28;20208;-70
2021/10/12 06:53:10;;;;;;;;;;;;;;;;;;5028783;28;19925;-69
2021/10/12 06:55:37;;;;;;;;;;;;;;;;;;5024085;28;19933;-70
2021/10/12 06:58:05;;;;;;;;;;;;;;;;;;5026601;28;19929;-68
2021/10/12 07:00:32;;;;;;;;;;;;;;;;;;5028162;28;19933;-70
2021/10/12 07:02:59;;;;;;;;;;;;;;;;;;5025499;28;20214;-68
2021/10/12 07:05:26;;;;;;;;;;;;;;;;;;5031217;28;19933;-68
2021/10/12 07:07:53;;;;;;;;;;;;;;;;;;5024598;28;19925;-68
2021/10/12 07:10:20;;;;;;;;;;;;;;;;;;5031145;28;19929;-70
2021/10/12 07:12:48;;;;;;;;;;;;;;;;;;5031835;28;19942;-69
2021/10/12 07:15:15;;;;;;;;;;;;;;;;;;5033712;28;19929;-69
2021/10/12 07:17:42;;;;;;;;;;;;;;;;;;5029378;28;19925;-68
2021/10/12 07:20:09;;;;;;;;;;;;;;;;;;5029027;28;19944;-68
2021/10/12 07:22:36;;;;;;;;;;;;;;;;;;5029869;28;19925;-67
2021/10/12 07:25:06;;;;;;;;;;;;;;;;;;5029261;28;20316;-67
2021/10/12 07:27:33;;;;;;;;;;;;;;;;;;5027801;28;20357;-67
2021/10/12 07:30:00;;;;;;;;;;;;;;;;;;5026676;28;19925;-69
2021/10/12 07:32:26;;;;;;;;;;;;;;;;;;5027720;28;19929;-68
2021/10/12 07:34:53;;;;;;;;;;;;;;;;;;5024816;28;19933;-68
2021/10/12 07:37:20;;;;;;;;;;;;;;;;;;5026865;28;19948;-67
2021/10/12 07:39:47;;;;;;;;;;;;;;;;;;5030713;28;20067;-69
2021/10/12 07:42:14;;;;;;;;;;;;;;;;;;5017805;28;19935;-67
2021/10/12 07:44:41;;;;;;;;;;;;;;;;;;5023748;28;19933;-68
2021/10/12 07:47:08;;;;;;;;;;;;;;;;;;5029052;28;19925;-68
2021/10/12 07:49:35;;;;;;;;;;;;;;;;;;5025950;28;19929;-68
2021/10/12 07:52:06;;;;;;;;;;;;;;;;;;5022921;28;19933;-67
2021/10/12 07:54:40;;;;;;;;;;;;;;;;;;5022231;28;19932;-68
2021/10/12 07:57:07;;;;;;;;;;;;;;;;;;5026244;28;19925;-69
2021/10/12 07:59:34;;;;;;;;;;;;;;;;;;5031750;28;19939;-67
2021/10/12 08:02:01;;;;;;;;;;;;;;;;;;5021585;28;20297;-68
2021/10/12 08:04:28;;;;;;;;;;;;;;;;;;5024216;28;19929;-68
2021/10/12 08:06:55;;;;;;;;;;;;;;;;;;5026643;28;19936;-68
2021/10/12 08:09:22;;;;;;;;;;;;;;;;;;5028647;28;19929;-69
2021/10/12 08:11:49;;;;;;;;;;;;;;;;;;5026384;28;19932;-70
2021/10/12 08:14:19;;;;;;;;;;;;;;;;;;5023024;28;19933;-68
2021/10/12 08:16:46;;;;;;;;;;;;;;;;;;5028752;28;20443;-68
2021/10/12 08:19:13;;;;;;;;;;;;;;;;;;5028403;28;19932;-69
2021/10/12 08:21:40;;;;;;;;;;;;;;;;;;5023169;28;19925;-67
2021/10/12 08:24:07;;;;;;;;;;;;;;;;;;5028750;28;20327;-68
2021/10/12 08:26:34;;;;;;;;;;;;;;;;;;5027366;28;19925;-69
2021/10/12 08:29:01;;;;;;;;;;;;;;;;;;5029239;28;19932;-68
2021/10/12 08:31:27;;;;;;;;;;;;;;;;;;5022460;28;19925;-68
2021/10/12 08:33:54;;;;;;;;;;;;;;;;;;5020404;28;20012;-68
2021/10/12 08:36:21;;;;;;;;;;;;;;;;;;5021275;28;19928;-69
2021/10/12 08:38:53;;;;;;;;;;;;;;;;;;5028714;28;19932;-69
2021/10/12 08:41:20;;;;;;;;;;;;;;;;;;5024651;28;19944;-69
2021/10/12 08:43:47;;;;;;;;;;;;;;;;;;5021918;28;19933;-69
2021/10/12 08:46:14;;;;;;;;;;;;;;;;;;5027805;28;19925;-68
2021/10/12 08:48:41;;;;;;;;;;;;;;;;;;5029121;28;19924;-68
2021/10/12 08:51:08;;;;;;;;;;;;;;;;;;5022230;28;20012;-70
2021/10/12 08:53:35;;;;;;;;;;;;;;;;;;5022897;28;19940;-68
2021/10/12 08:56:02;;;;;;;;;;;;;;;;;;5027567;28;19931;-69
2021/10/12 08:58:29;;;;;;;;;;;;;;;;;;5027058;28;20012;-68
2021/10/12 09:00:57;;;;;;;;;;;;;;;;;;5025249;28;20360;-69
2021/10/12 09:03:29;;;;;;;;;;;;;;;;;;5023853;28;20149;-69
2021/10/12 09:05:56;;;;;;;;;;;;;;;;;;5023580;28;19926;-70
2021/10/12 09:08:23;;;;;;;;;;;;;;;;;;5024912;28;20073;-71
2021/10/12 09:10:50;;;;;;;;;;;;;;;;;;5025678;28;19925;-71
2021/10/12 09:13:17;;;;;;;;;;;;;;;;;;5022148;28;19933;-71
2021/10/12 09:15:44;;;;;;;;;;;;;;;;;;5022684;28;19987;-70
2021/10/12 09:18:11;;;;;;;;;;;;;;;;;;5023612;28;19933;-69
2021/10/12 09:20:39;;;;;;;;;;;;;;;;;;5023756;28;19933;-68
2021/10/12 09:23:05;;;;;;;;;;;;;;;;;;5022827;28;19930;-68
2021/10/12 09:25:32;;;;;;;;;;;;;;;;;;5020806;28;19933;-71
2021/10/12 09:27:59;;;;;;;;;;;;;;;;;;5025913;28;20308;-72
2021/10/12 09:30:26;;;;;;;;;;;;;;;;;;5031536;28;19925;-71
2021/10/12 09:32:53;;;;;;;;;;;;;;;;;;5023679;28;19926;-71
2021/10/12 09:35:20;;;;;;;;;;;;;;;;;;5022231;28;20008;-71
2021/10/12 09:37:47;;;;;;;;;;;;;;;;;;5026145;28;19932;-71
2021/10/12 09:40:14;;;;;;;;;;;;;;;;;;5021753;28;20377;-71
2021/10/12 09:45:10;;;;;;;;;;;;;;;;;;5038240;28;19925;-60
2021/10/12 09:47:37;;;;;;;;;;;;;;;;;;5045560;28;19943;-60
2021/10/12 09:50:04;;;;;;;;;;;;;;;;;;5043201;28;19925;-59
2021/10/12 09:52:31;;;;;;;;;;;;;;;;;;5043653;28;20215;-59
2021/10/12 09:54:58;;;;;;;;;;;;;;;;;;5030367;28;20120;-58
2021/10/12 09:57:28;;;;;;;;;;;;;;;;;;5026620;28;19933;-60
2021/10/12 09:59:55;;;;;;;;;;;;;;;;;;5031514;28;19935;-60
2021/10/12 10:02:22;;;;;;;;;;;;;;;;;;5027806;28;19933;-60
2021/10/12 10:04:49;;;;;;;;;;;;;;;;;;5025824;28;20324;-60
2021/10/12 10:07:16;;;;;;;;;;;;;;;;;;5034151;28;19929;-60
2021/10/12 10:09:43;;;;;;;;;;;;;;;;;;5030820;28;19933;-59
2021/10/12 10:12:10;;;;;;;;;;;;;;;;;;5027046;28;19936;-59
2021/10/12 10:14:37;;;;;;;;;;;;;;;;;;5033878;28;19932;-60
2021/10/12 10:17:04;;;;;;;;;;;;;;;;;;5028991;28;19925;-60
2021/10/12 10:19:31;;;;;;;;;;;;;;;;;;5028878;28;20184;-60
2021/10/12 10:21:58;;;;;;;;;;;;;;;;;;5029331;28;20016;-60
2021/10/12 10:24:29;;;;;;;;;;;;;;;;;;5032598;28;19931;-59
2021/10/12 10:26:56;;;;;;;;;;;;;;;;;;5034481;28;20404;-60
2021/10/12 10:29:23;;;;;;;;;;;;;;;;;;5040064;28;19929;-58
2021/10/12 10:31:51;;;;;;;;;;;;;;;;;;5033213;28;19961;-59
2021/10/12 10:34:18;;;;;;;;;;;;;;;;;;5033898;28;19980;-60
2021/10/12 10:36:45;;;;;;;;;;;;;;;;;;5037902;28;19933;-59
2021/10/12 10:39:12;;;;;;;;;;;;;;;;;;5030109;28;19953;-59
2021/10/12 10:41:39;;;;;;;;;;;;;;;;;;5031833;28;19929;-59
2021/10/12 10:44:06;;;;;;;;;;;;;;;;;;5034628;28;19925;-59
2021/10/12 10:46:34;;;;;;;;;;;;;;;;;;5032584;28;20012;-59
2021/10/12 10:49:01;;;;;;;;;;;;;;;;;;5028251;28;20326;-59
2021/10/12 10:51:28;;;;;;;;;;;;;;;;;;5037819;28;19929;-60
2021/10/12 10:53:55;;;;;;;;;;;;;;;;;;5037428;28;19928;-59
2021/10/12 10:56:22;;;;;;;;;;;;;;;;;;5040364;28;19932;-59
2021/10/12 10:58:49;;;;;;;;;;;;;;;;;;5035314;28;20008;-60
2021/10/12 11:01:16;;;;;;;;;;;;;;;;;;5034722;28;19929;-60
2021/10/12 11:03:43;;;;;;;;;;;;;;;;;;5033614;28;20100;-60
2021/10/12 11:06:10;;;;;;;;;;;;;;;;;;5039326;28;20436;-60
2021/10/12 11:08:40;;;;;;;;;;;;;;;;;;5022444;28;19953;-59
2021/10/12 11:11:07;;;;;;;;;;;;;;;;;;5034074;28;19929;-59
2021/10/12 11:13:34;;;;;;;;;;;;;;;;;;5034032;28;19925;-60
2021/10/12 11:16:01;;;;;;;;;;;;;;;;;;5030678;28;19925;-60
2021/10/12 11:18:28;;;;;;;;;;;;;;;;;;5038721;28;19925;-60
2021/10/12 11:20:55;;;;;;;;;;;;;;;;;;5029004;28;20309;-60
2021/10/12 11:23:22;;;;;;;;;;;;;;;;;;5037206;28;20293;-60
2021/10/12 11:25:49;;;;;;;;;;;;;;;;;;5040342;28;19925;-60
2021/10/12 11:28:16;;;;;;;;;;;;;;;;;;5039532;28;19925;-60
2021/10/12 11:30:43;;;;;;;;;;;;;;;;;;5034869;28;20320;-60
2021/10/12 11:33:10;;;;;;;;;;;;;;;;;;5033875;28;19932;-60
2021/10/12 11:35:37;;;;;;;;;;;;;;;;;;5038629;28;19932;-60
2021/10/12 11:38:04;;;;;;;;;;;;;;;;;;5037989;28;19929;-60
2021/10/12 11:40:31;;;;;;;;;;;;;;;;;;5034144;28;20384;-60
2021/10/12 11:42:59;;;;;;;;;;;;;;;;;;5032556;28;20392;-60
2021/10/12 11:45:27;;;;;;;;;;;;;;;;;;5027432;28;20525;-60
2021/10/12 11:47:53;;;;;;;;;;;;;;;;;;5027063;28;20309;-60
2021/10/12 11:50:20;;;;;;;;;;;;;;;;;;5030184;28;20392;-60
2021/10/12 11:52:47;;;;;;;;;;;;;;;;;;5035815;28;19925;-61
2021/10/12 11:55:14;;;;;;;;;;;;;;;;;;5034751;28;19956;-60
2021/10/12 11:57:44;;;;;;;;;;;;;;;;;;5038047;28;19925;-60
2021/10/12 12:00:11;;;;;;;;;;;;;;;;;;5034925;28;20313;-60
2021/10/12 12:02:38;;;;;;;;;;;;;;;;;;5033776;28;19986;-60
2021/10/12 12:05:05;;;;;;;;;;;;;;;;;;5039478;28;19957;-60
2021/10/12 12:07:32;;;;;;;;;;;;;;;;;;5034398;28;19932;-60
2021/10/12 12:09:59;;;;;;;;;;;;;;;;;;5038685;28;19931;-60
2021/10/12 12:12:26;;;;;;;;;;;;;;;;;;5027569;28;20008;-60
2021/10/12 12:14:53;;;;;;;;;;;;;;;;;;5030445;28;19925;-60
2021/10/12 12:17:20;;;;;;;;;;;;;;;;;;5033637;28;20385;-60
2021/10/12 12:19:47;;;;;;;;;;;;;;;;;;5034193;28;20619;-59
2021/10/12 12:22:14;;;;;;;;;;;;;;;;;;5031432;28;19969;-59
2021/10/12 12:24:41;;;;;;;;;;;;;;;;;;5039972;28;19929;-57
2021/10/12 12:27:08;;;;;;;;;;;;;;;;;;5034815;28;20304;-57
2021/10/12 12:29:35;;;;;;;;;;;;;;;;;;5033719;28;19936;-60
2021/10/12 12:32:02;;;;;;;;;;;;;;;;;;5031047;28;19929;-60
2021/10/12 12:34:29;;;;;;;;;;;;;;;;;;5036542;28;19940;-60
2021/10/12 12:36:56;;;;;;;;;;;;;;;;;;5035556;28;19925;-60
2021/10/12 12:39:23;;;;;;;;;;;;;;;;;;5031730;28;19925;-59
2021/10/12 12:41:50;;;;;;;;;;;;;;;;;;5032498;28;19925;-60
2021/10/12 12:44:19;;;;;;;;;;;;;;;;;;5034976;28;19964;-60
2021/10/12 12:46:46;;;;;;;;;;;;;;;;;;5028514;28;20276;-60
2021/10/12 12:49:14;;;;;;;;;;;;;;;;;;5032262;28;19929;-59
2021/10/12 12:51:45;;;;;;;;;;;;;;;;;;5029986;28;20400;-59
2021/10/12 12:54:12;;;;;;;;;;;;;;;;;;5030286;28;20304;-59
2021/10/12 12:56:39;;;;;;;;;;;;;;;;;;5029912;28;20393;-59
2021/10/12 12:59:07;;;;;;;;;;;;;;;;;;5026935;28;20443;-58
2021/10/12 13:01:34;;;;;;;;;;;;;;;;;;5029475;28;19987;-60
2021/10/12 13:04:01;;;;;;;;;;;;;;;;;;5029020;28;19987;-60
2021/10/12 13:06:28;;;;;;;;;;;;;;;;;;5029482;28;20182;-61
2021/10/12 13:08:57;;;;;;;;;;;;;;;;;;5030208;28;19929;-60
2021/10/12 13:11:24;;;;;;;;;;;;;;;;;;5031250;28;19944;-61
2021/10/12 13:13:51;;;;;;;;;;;;;;;;;;5029817;28;20281;-60
2021/10/12 13:16:18;;;;;;;;;;;;;;;;;;5028125;28;19925;-60
2021/10/12 13:18:45;;;;;;;;;;;;;;;;;;5033392;28;19925;-61
2021/10/12 13:21:12;;;;;;;;;;;;;;;;;;5030710;28;19925;-61
2021/10/12 13:23:39;;;;;;;;;;;;;;;;;;5029188;28;20553;-61
2021/10/12 13:26:06;;;;;;;;;;;;;;;;;;5025042;28;19936;-61
2021/10/12 13:28:33;;;;;;;;;;;;;;;;;;5024590;28;19995;-60
2021/10/12 13:31:00;;;;;;;;;;;;;;;;;;5027332;28;19925;-61
2021/10/12 13:33:27;;;;;;;;;;;;;;;;;;5030023;28;19925;-61
2021/10/12 13:35:54;;;;;;;;;;;;;;;;;;5032949;28;19929;-61
2021/10/12 13:38:21;;;;;;;;;;;;;;;;;;5034364;28;19956;-61
2021/10/12 13:40:48;;;;;;;;;;;;;;;;;;5033490;28;19948;-61
2021/10/12 13:43:15;;;;;;;;;;;;;;;;;;4970933;28;1776866;-59
2021/10/12 13:45:42;;;;;;;;;;;;;;;;;;5034734;28;19924;-57
2021/10/12 13:48:09;;;;;;;;;;;;;;;;;;5028864;28;20545;-60
2021/10/12 13:50:36;;;;;;;;;;;;;;;;;;5034183;28;19929;-60
2021/10/12 13:53:03;;;;;;;;;;;;;;;;;;5036894;28;19932;-60
2021/10/12 13:55:30;;;;;;;;;;;;;;;;;;5038251;28;19996;-60
2021/10/12 13:57:59;;;;;;;;;;;;;;;;;;5039174;28;19935;-60
2021/10/12 14:00:28;;;;;;;;;;;;;;;;;;5034630;28;19987;-60
2021/10/12 14:02:55;;;;;;;;;;;;;;;;;;5034866;28;19929;-59
2021/10/12 14:05:22;;;;;;;;;;;;;;;;;;5039471;28;19926;-62
2021/10/12 14:07:49;;;;;;;;;;;;;;;;;;5037075;28;20023;-59
2021/10/12 14:10:16;;;;;;;;;;;;;;;;;;5038510;28;19933;-60
2021/10/12 14:12:43;;;;;;;;;;;;;;;;;;5037913;28;19941;-59
2021/10/12 14:15:12;;;;;;;;;;;;;;;;;;5030371;28;19928;-61
2021/10/12 14:17:39;;;;;;;;;;;;;;;;;;5033425;28;19929;-59
2021/10/12 14:20:06;;;;;;;;;;;;;;;;;;5040226;28;20429;-60
2021/10/12 14:22:33;;;;;;;;;;;;;;;;;;5033377;28;19939;-60
2021/10/12 14:25:00;;;;;;;;;;;;;;;;;;5034339;28;19929;-60
2021/10/12 14:27:27;;;;;;;;;;;;;;;;;;5035158;28;20027;-61
2021/10/12 14:29:59;;;;;;;;;;;;;;;;;;5023664;28;19940;-60
2021/10/12 14:32:26;;;;;;;;;;;;;;;;;;5023562;28;20002;-61
2021/10/12 14:34:53;;;;;;;;;;;;;;;;;;5035544;28;19971;-61
2021/10/12 14:37:20;;;;;;;;;;;;;;;;;;5023390;28;19932;-61
2021/10/12 14:39:47;;;;;;;;;;;;;;;;;;5036512;28;19936;-61
2021/10/12 14:42:14;;;;;;;;;;;;;;;;;;5030911;28;20023;-60
2021/10/12 14:44:41;;;;;;;;;;;;;;;;;;5024509;28;19929;-60
2021/10/12 14:47:08;;;;;;;;;;;;;;;;;;5026708;28;19944;-61
2021/10/12 14:49:35;;;;;;;;;;;;;;;;;;5029808;28;19925;-61
2021/10/12 14:52:02;;;;;;;;;;;;;;;;;;5031567;28;19924;-61
2021/10/12 14:54:29;;;;;;;;;;;;;;;;;;5031252;28;19925;-61
2021/10/12 14:56:56;;;;;;;;;;;;;;;;;;5029331;28;20527;-61
2021/10/12 14:59:23;;;;;;;;;;;;;;;;;;5024526;28;19940;-61
2021/10/12 15:01:50;;;;;;;;;;;;;;;;;;5034944;28;19925;-61
2021/10/12 15:04:17;;;;;;;;;;;;;;;;;;5034899;28;19936;-61
2021/10/12 15:06:44;;;;;;;;;;;;;;;;;;5035194;28;19932;-61
2021/10/12 15:09:11;;;;;;;;;;;;;;;;;;5032244;28;19934;-60
2021/10/12 15:11:38;;;;;;;;;;;;;;;;;;5030750;28;19932;-62
2021/10/12 15:14:05;;;;;;;;;;;;;;;;;;5028815;28;19933;-61
2021/10/12 15:16:32;;;;;;;;;;;;;;;;;;5032282;28;20008;-61
2021/10/12 15:19:00;;;;;;;;;;;;;;;;;;5035129;28;19925;-61
2021/10/12 15:21:27;;;;;;;;;;;;;;;;;;5033863;28;19929;-61
2021/10/12 15:23:54;;;;;;;;;;;;;;;;;;5032224;28;19933;-60
2021/10/12 15:26:21;;;;;;;;;;;;;;;;;;5033851;28;19929;-60
2021/10/12 15:28:48;;;;;;;;;;;;;;;;;;5035226;28;19932;-61
2021/10/12 15:31:15;;;;;;;;;;;;;;;;;;5030265;28;19929;-60
2021/10/12 15:33:42;;;;;;;;;;;;;;;;;;5037657;28;19925;-61
2021/10/12 15:36:09;;;;;;;;;;;;;;;;;;5035317;28;19925;-61
2021/10/12 15:38:36;;;;;;;;;;;;;;;;;;5039332;28;20385;-61
2021/10/12 15:41:03;;;;;;;;;;;;;;;;;;5034491;28;19929;-61
2021/10/12 15:43:30;;;;;;;;;;;;;;;;;;5052846;22;19932;-72
2021/10/12 15:45:56;;;;;;;;;;;;;;;;;;5047522;28;19933;-72
2021/10/12 15:48:25;;;;;;;;;;;;;;;;;;5043648;28;19932;-71
2021/10/12 15:50:52;;;;;;;;;;;;;;;;;;5042172;28;20024;-71
2021/10/12 15:53:19;;;;;;;;;;;;;;;;;;5044442;28;19925;-72
2021/10/12 15:55:46;;;;;;;;;;;;;;;;;;5034395;28;20024;-71
2021/10/12 15:58:13;;;;;;;;;;;;;;;;;;5033498;28;20019;-71
2021/10/12 16:00:40;;;;;;;;;;;;;;;;;;5028510;28;19943;-73
2021/10/12 16:03:07;;;;;;;;;;;;;;;;;;5028849;28;19932;-72
2021/10/12 16:05:34;;;;;;;;;;;;;;;;;;5029248;28;19929;-72
2021/10/12 16:08:01;;;;;;;;;;;;;;;;;;5030453;28;19925;-73
2021/10/12 16:10:28;;;;;;;;;;;;;;;;;;5027123;28;19926;-73
2021/10/12 16:12:55;;;;;;;;;;;;;;;;;;5028975;28;19925;-73
2021/10/12 16:21:11;;;;;;;;;;;;;;;;;;5027572;28;19920;-72
2021/10/12 16:23:38;;;;;;;;;;;;;;;;;;5026405;28;20288;-72
2021/10/12 16:26:05;;;;;;;;;;;;;;;;;;5029142;28;19929;-73
2021/10/12 16:28:32;;;;;;;;;;;;;;;;;;5026814;28;19925;-72
2021/10/12 16:30:59;;;;;;;;;;;;;;;;;;5027520;28;19930;-73
2021/10/12 16:33:26;;;;;;;;;;;;;;;;;;5030782;28;20372;-73
2021/10/12 16:35:55;;;;;;;;;;;;;;;;;;5034157;28;19929;-72
2021/10/12 16:38:22;;;;;;;;;;;;;;;;;;5034238;28;19929;-73
2021/10/12 16:40:49;;;;;;;;;;;;;;;;;;5032113;28;19925;-73
2021/10/12 16:43:16;;;;;;;;;;;;;;;;;;5041096;28;19963;-72
2021/10/12 16:45:43;;;;;;;;;;;;;;;;;;5038516;28;19929;-74
2021/10/12 16:48:12;;;;;;;;;;;;;;;;;;5034823;28;20395;-73
2021/10/12 16:50:41;;;;;;;;;;;;;;;;;;5029506;28;19925;-73
2021/10/12 16:53:08;;;;;;;;;;;;;;;;;;5028480;28;19931;-71